Time;durP1;ratioP1;P1;durP2;ratioP2;P2;SDS_P1;SDS_P2;PMS_P1;PMS_P2;Temp;Humidity;BMP_temperature;BMP_pressure;BME280_temperature;BME280_humidity;BME280_pressure;Samples;Min_cycle;Max_cycle;Signal;HPM_P1;HPM_P2
2023/11/19 00:03:23;;;;;;;3.92;3.60;;;;;;;7.39;100.00;99748.31;10394978;28;20041;-82
2023/11/19 00:08:27;;;;;;;5.05;3.72;;;;;;;7.54;100.00;99746.25;10402507;28;20405;-83
2023/11/19 00:13:32;;;;;;;3.28;2.97;;;;;;;7.51;100.00;99746.50;10421493;28;20156;-82
2023/11/19 00:18:35;;;;;;;1.92;1.83;;;;;;;7.42;100.00;99756.09;10378463;28;20060;-82
2023/11/19 00:23:38;;;;;;;1.88;1.77;;;;;;;7.68;100.00;99759.41;10402624;28;20041;-82
2023/11/19 00:28:43;;;;;;;1.70;1.60;;;;;;;7.91;100.00;99749.53;10411792;28;20037;-83
2023/11/19 00:33:46;;;;;;;1.50;1.40;;;;;;;7.66;100.00;99750.66;10400081;28;20041;-84
2023/11/19 00:38:53;;;;;;;2.00;1.90;;;;;;;7.78;100.00;99738.13;10405292;28;20063;-83
2023/11/19 00:43:57;;;;;;;1.75;1.65;;;;;;;8.00;100.00;99723.03;10405289;28;20468;-84
2023/11/19 00:49:01;;;;;;;1.75;1.40;;;;;;;7.97;100.00;99705.41;10399116;28;20076;-82
2023/11/19 00:54:04;;;;;;;2.42;1.58;;;;;;;8.04;100.00;99709.28;10392921;28;20068;-84
2023/11/19 00:59:08;;;;;;;1.85;1.65;;;;;;;7.94;100.00;99701.16;10390285;28;20708;-84
2023/11/19 01:04:11;;;;;;;2.20;2.00;;;;;;;7.89;100.00;99691.81;10390071;28;20709;-83
2023/11/19 01:09:15;;;;;;;4.15;2.30;;;;;;;8.07;100.00;99693.00;10409968;28;20044;-81
2023/11/19 01:14:20;;;;;;;2.40;2.20;;;;;;;7.94;100.00;99690.44;10399382;28;21292;-81
2023/11/19 01:19:24;;;;;;;3.08;2.70;;;;;;;8.40;100.00;99694.72;10391753;28;20102;-81
2023/11/19 01:24:28;;;;;;;2.00;1.80;;;;;;;8.37;100.00;99678.91;10401755;28;20046;-84
2023/11/19 01:29:33;;;;;;;2.15;1.73;;;;;;;8.34;100.00;99660.44;10423273;28;20409;-84
2023/11/19 01:34:36;;;;;;;2.92;2.15;;;;;;;8.11;100.00;99672.19;10397111;28;20057;-84
2023/11/19 01:39:39;;;;;;;2.90;2.70;;;;;;;8.43;100.00;99652.63;10437640;28;20055;-84
2023/11/19 01:44:55;;;;;;;4.22;3.83;;;;;;;8.56;100.00;99629.25;10427949;28;20048;-83
2023/11/19 01:49:59;;;;;;;6.25;4.45;;;;;;;8.43;100.00;99648.13;10433338;28;20048;-84
2023/11/19 01:55:03;;;;;;;6.60;5.57;;;;;;;8.49;100.00;99638.75;10437702;28;20049;-83
2023/11/19 02:00:11;;;;;;;8.90;7.03;;;;;;;8.68;100.00;99621.97;10441389;28;20142;-83
2023/11/19 02:05:16;;;;;;;9.68;7.38;;;;;;;8.86;100.00;99617.75;10419052;28;20069;-83
2023/11/19 02:10:19;;;;;;;8.23;6.95;;;;;;;8.89;100.00;99604.09;10421009;28;20080;-83
2023/11/19 02:15:24;;;;;;;5.97;4.88;;;;;;;8.72;100.00;99597.50;10429605;28;20052;-82
2023/11/19 02:20:27;;;;;;;6.15;3.30;;;;;;;8.78;100.00;99588.09;10421937;28;20053;-83
2023/11/19 02:25:33;;;;;;;5.72;4.85;;;;;;;8.98;100.00;99584.53;10441002;28;20053;-83
2023/11/19 02:30:37;;;;;;;5.43;4.55;;;;;;;8.73;100.00;99579.59;10441776;28;20047;-82
2023/11/19 02:35:40;;;;;;;6.13;5.30;;;;;;;8.89;100.00;99593.38;10435664;28;21169;-83
2023/11/19 02:40:43;;;;;;;6.97;5.35;;;;;;;8.73;100.00;99582.28;10443738;28;20166;-83
2023/11/19 02:45:48;;;;;;;9.77;6.68;;;;;;;9.09;100.00;99572.88;10440617;28;20059;-82
2023/11/19 02:50:52;;;;;;;10.90;9.25;;;;;;;9.35;100.00;99556.31;10447068;28;20463;-83
2023/11/19 02:56:01;;;;;;;14.27;9.60;;;;;;;9.16;100.00;99560.66;10441310;28;20375;-82
2023/11/19 03:01:12;;;;;;;16.77;12.88;;;;;;;9.20;100.00;99542.47;10437035;28;20063;-82
2023/11/19 03:06:15;;;;;;;15.10;11.17;;;;;;;8.93;100.00;99559.13;10433757;28;20106;-82
2023/11/19 03:11:18;;;;;;;15.07;10.48;;;;;;;9.15;100.00;99558.09;10428583;28;20095;-82
2023/11/19 03:16:22;;;;;;;22.40;14.43;;;;;;;9.28;100.00;99551.50;10439738;28;20068;-82
2023/11/19 03:21:28;;;;;;;19.65;13.23;;;;;;;9.22;100.00;99553.91;10445371;28;20057;-82
2023/11/19 03:26:33;;;;;;;26.38;17.48;;;;;;;9.48;100.00;99539.00;10408071;28;21324;-82
2023/11/19 03:31:42;;;;;;;29.33;18.17;;;;;;;9.62;100.00;99528.84;10428201;28;20059;-83
2023/11/19 03:36:45;;;;;;;28.73;17.63;;;;;;;9.41;100.00;99524.47;10452720;28;21040;-83
2023/11/19 03:41:48;;;;;;;30.98;19.63;;;;;;;9.71;100.00;99514.63;10437278;28;20049;-82
2023/11/19 03:46:52;;;;;;;30.02;20.30;;;;;;;9.79;100.00;99521.97;10461044;28;20048;-82
2023/11/19 03:51:55;;;;;;;33.53;20.52;;;;;;;9.90;100.00;99522.72;10452271;28;20124;-83
2023/11/19 03:56:59;;;;;;;33.50;20.05;;;;;;;9.63;100.00;99528.72;10430428;28;20091;-83
2023/11/19 04:02:04;;;;;;;33.65;22.50;;;;;;;9.78;100.00;99539.88;10404081;28;20052;-82
2023/11/19 04:07:07;;;;;;;34.22;22.05;;;;;;;9.90;100.00;99546.88;10389324;28;20045;-82
2023/11/19 04:12:10;;;;;;;36.35;20.70;;;;;;;10.00;100.00;99537.97;10407860;28;20063;-82
2023/11/19 04:17:14;;;;;;;29.83;18.42;;;;;;;10.08;100.00;99532.72;10407968;28;20053;-82
2023/11/19 04:22:17;;;;;;;21.38;13.13;;;;;;;10.06;100.00;99534.72;10390743;28;20049;-82
2023/11/19 04:27:20;;;;;;;26.73;16.75;;;;;;;10.09;100.00;99518.31;10409896;28;20053;-82
2023/11/19 04:32:25;;;;;;;25.25;17.05;;;;;;;10.15;100.00;99509.72;10404167;28;20449;-83
2023/11/19 04:37:28;;;;;;;20.42;11.88;;;;;;;10.10;100.00;99514.66;10440727;28;20049;-83
2023/11/19 04:42:31;;;;;;;23.63;12.73;;;;;;;9.95;100.00;99527.66;10383268;28;20056;-83
2023/11/19 04:47:36;;;;;;;16.98;11.48;;;;;;;10.08;100.00;99513.94;10405324;28;21370;-82
2023/11/19 04:52:42;;;;;;;26.60;11.65;;;;;;;10.29;100.00;99514.63;10394458;28;20080;-83
2023/11/19 04:57:45;;;;;;;19.88;12.65;;;;;;;10.24;100.00;99495.44;10392331;28;20083;-82
2023/11/19 05:02:49;;;;;;;19.88;9.90;;;;;;;10.08;100.00;99497.84;10406392;28;20132;-82
2023/11/19 05:07:52;;;;;;;14.43;7.57;;;;;;;10.32;100.00;99486.66;10454643;28;20048;-82
2023/11/19 05:12:56;;;;;;;19.65;7.13;;;;;;;10.34;100.00;99473.97;10437761;28;20068;-83
2023/11/19 05:18:00;;;;;;;9.98;3.47;;;;;;;10.13;100.00;99506.31;10434913;28;20052;-84
2023/11/19 05:23:03;;;;;;;14.93;5.18;;;;;;;10.29;100.00;99520.00;10449595;28;20207;-84
2023/11/19 05:28:06;;;;;;;18.38;4.25;;;;;;;10.17;100.00;99519.31;10423136;28;20056;-85
2023/11/19 05:33:10;;;;;;;13.18;4.00;;;;;;;10.23;100.00;99511.66;10423050;28;20052;-85
2023/11/19 05:38:14;;;;;;;11.98;3.55;;;;;;;9.84;100.00;99514.34;10413693;28;20057;-83
2023/11/19 05:43:17;;;;;;;15.70;4.00;;;;;;;9.82;100.00;99521.66;10413998;28;20698;-83
2023/11/19 05:48:23;;;;;;;17.20;4.57;;;;;;;10.03;100.00;99511.69;10440505;28;20095;-84
2023/11/19 05:53:25;;;;;;;23.75;4.80;;;;;;;10.00;100.00;99514.66;10415368;28;20087;-83
2023/11/19 05:58:29;;;;;;;11.60;3.50;;;;;;;9.83;100.00;99510.81;10429525;28;20045;-84
2023/11/19 06:03:33;;;;;;;17.02;4.30;;;;;;;9.82;100.00;99513.63;10417678;28;20060;-85
2023/11/19 06:08:37;;;;;;;15.25;4.28;;;;;;;9.99;100.00;99518.34;10416440;28;20072;-84
2023/11/19 06:13:40;;;;;;;18.30;4.20;;;;;;;9.79;100.00;99520.16;10406732;28;20266;-84
2023/11/19 06:18:44;;;;;;;27.88;5.13;;;;;;;9.94;100.00;99534.84;10419013;28;20075;-84
2023/11/19 06:23:48;;;;;;;8.25;3.38;;;;;;;9.67;100.00;99527.44;10407602;28;20055;-84
2023/11/19 06:28:51;;;;;;;14.23;2.95;;;;;;;9.57;100.00;99533.78;10382562;28;20053;-83
2023/11/19 06:33:56;;;;;;;16.55;3.72;;;;;;;9.55;100.00;99533.09;10383466;28;20433;-83
2023/11/19 06:38:59;;;;;;;16.50;3.97;;;;;;;9.73;100.00;99550.19;10392776;28;20060;-83
2023/11/19 06:44:01;;;;;;;25.27;6.07;;;;;;;9.96;100.00;99544.63;10413401;28;20057;-84
2023/11/19 06:49:07;;;;;;;21.35;4.63;;;;;;;9.76;100.00;99560.63;10394555;28;20048;-83
2023/11/19 06:54:10;;;;;;;27.17;6.03;;;;;;;10.01;100.00;99570.03;10388469;28;20065;-83
2023/11/19 06:59:13;;;;;;;18.27;3.88;;;;;;;9.66;100.00;99571.34;10397000;28;20074;-83
2023/11/19 07:04:17;;;;;;;24.17;6.55;;;;;;;9.97;99.14;99579.34;10415926;28;20049;-82
2023/11/19 07:09:20;;;;;;;24.48;5.13;;;;;;;9.69;99.28;99575.59;10435203;28;20056;-82
2023/11/19 07:14:23;;;;;;;24.70;6.57;;;;;;;9.83;97.02;99572.50;10457280;28;20056;-83
2023/11/19 07:19:29;;;;;;;29.08;4.80;;;;;;;9.74;96.35;99578.72;10450611;28;20048;-83
2023/11/19 07:24:32;;;;;;;29.35;4.38;;;;;;;9.88;94.78;99575.66;10453003;28;20083;-83
2023/11/19 07:29:35;;;;;;;24.02;4.18;;;;;;;9.93;95.22;99581.47;10452455;28;20112;-83
2023/11/19 07:34:41;;;;;;;26.60;5.30;;;;;;;9.80;98.92;99590.72;10427521;28;20048;-82
2023/11/19 07:39:44;;;;;;;29.27;5.82;;;;;;;9.89;98.27;99587.22;10423888;28;20044;-81
2023/11/19 07:44:47;;;;;;;25.02;5.05;;;;;;;9.64;100.00;99593.94;10432029;28;20059;-82
2023/11/19 07:49:52;;;;;;;20.42;4.28;;;;;;;9.64;97.68;99604.66;10446865;28;20988;-82
2023/11/19 07:54:55;;;;;;;27.95;4.28;;;;;;;9.77;95.83;99605.25;10445423;28;20065;-81
2023/11/19 07:59:58;;;;;;;18.77;3.33;;;;;;;9.86;96.18;99612.50;10472840;28;20083;-82
2023/11/19 08:05:02;;;;;;;13.93;2.78;;;;;;;9.96;95.49;99598.25;10453766;28;20404;-82
2023/11/19 08:10:09;;;;;;;18.42;3.28;;;;;;;9.71;96.62;99622.75;10401741;28;20726;-81
2023/11/19 08:15:12;;;;;;;29.35;6.03;;;;;;;10.11;93.01;99615.63;10399729;28;21052;-82
2023/11/19 08:20:17;;;;;;;17.70;4.40;;;;;;;9.80;95.06;99639.84;10409387;28;20053;-81
2023/11/19 08:25:20;;;;;;;23.15;3.35;;;;;;;9.99;94.06;99648.97;10412233;28;20136;-81
2023/11/19 08:30:23;;;;;;;34.10;7.75;;;;;;;9.80;94.94;99636.31;10462383;28;20048;-81
2023/11/19 08:35:27;;;;;;;19.85;4.07;;;;;;;9.66;95.46;99675.94;10457403;28;20143;-80
2023/11/19 08:40:30;;;;;;;34.92;6.60;;;;;;;9.49;100.00;99644.41;10457954;28;20049;-81
2023/11/19 08:45:33;;;;;;;34.72;6.15;;;;;;;9.51;100.00;99637.91;10466874;28;20048;-81
2023/11/19 08:50:40;;;;;;;28.10;6.18;;;;;;;9.55;100.00;99649.22;10474542;28;20075;-81
2023/11/19 08:55:43;;;;;;;24.40;5.03;;;;;;;9.71;100.00;99654.09;10481493;28;20141;-81
2023/11/19 09:00:46;;;;;;;28.40;5.05;;;;;;;10.04;96.78;99668.16;10459367;28;21287;-82
2023/11/19 09:05:50;;;;;;;23.90;4.55;;;;;;;9.95;95.52;99677.88;10471600;28;20057;-83
2023/11/19 09:10:53;;;;;;;29.15;5.43;;;;;;;9.74;97.43;99664.53;10469077;28;20045;-81
2023/11/19 09:15:59;;;;;;;32.67;5.20;;;;;;;9.78;95.99;99687.41;10471531;28;20739;-81
2023/11/19 09:21:03;;;;;;;21.58;4.90;;;;;;;10.25;93.18;99668.88;10462515;28;20096;-81
2023/11/19 09:26:07;;;;;;;27.65;5.32;;;;;;;10.24;92.74;99664.53;10451856;28;20577;-83
2023/11/19 09:31:16;;;;;;;25.08;4.38;;;;;;;10.20;92.79;99676.50;10435671;28;20538;-81
2023/11/19 09:36:20;;;;;;;37.30;5.82;;;;;;;10.10;93.51;99675.66;10438890;28;20498;-82
2023/11/19 09:41:25;;;;;;;32.28;5.03;;;;;;;10.45;90.37;99680.50;10451838;28;20041;-80
2023/11/19 09:46:29;;;;;;;20.75;4.30;;;;;;;10.29;90.41;99699.00;10450851;28;20049;-80
2023/11/19 09:51:33;;;;;;;16.70;4.47;;;;;;;10.80;88.38;99679.91;10435700;28;20067;-80
2023/11/19 09:56:38;;;;;;;21.80;4.35;;;;;;;10.51;89.95;99688.00;10457375;28;20060;-81
2023/11/19 10:01:42;;;;;;;24.23;4.75;;;;;;;10.20;95.51;99692.59;10451774;28;20049;-82
2023/11/19 10:06:47;;;;;;;34.38;7.15;;;;;;;9.83;100.00;99687.00;10437228;28;20111;-81
2023/11/19 10:11:50;;;;;;;24.23;5.85;;;;;;;9.88;100.00;99688.31;10432161;28;20044;-81
2023/11/19 10:16:55;;;;;;;23.88;4.82;;;;;;;9.96;98.66;99679.59;10396323;28;20052;-81
2023/11/19 10:22:04;;;;;;;34.33;5.88;;;;;;;10.26;98.52;99680.50;10412851;28;20109;-81
2023/11/19 10:27:08;;;;;;;19.50;4.82;;;;;;;10.12;96.28;99671.00;10412599;28;20049;-81
2023/11/19 10:32:13;;;;;;;22.27;4.43;;;;;;;10.55;93.00;99675.97;10400764;28;20072;-82
2023/11/19 10:37:31;;;;;;;36.67;6.28;;;;;;;10.61;90.66;99666.50;10385136;28;20056;-81
2023/11/19 10:42:34;;;;;;;28.58;5.78;;;;;;;10.75;90.33;99667.91;10389246;28;20042;-79
2023/11/19 10:47:40;;;;;;;33.03;5.10;;;;;;;10.79;87.52;99672.00;10397227;28;20049;-79
2023/11/19 10:52:49;;;;;;;28.17;5.47;;;;;;;10.57;87.47;99678.53;10377597;28;20147;-80
2023/11/19 10:57:52;;;;;;;22.92;4.50;;;;;;;11.10;84.85;99672.66;10393121;28;20052;-81
2023/11/19 11:03:00;;;;;;;21.48;3.92;;;;;;;10.70;87.07;99659.44;10361887;28;20053;-80
2023/11/19 11:08:07;;;;;;;30.40;4.95;;;;;;;10.69;86.72;99666.63;10382836;28;20529;-81
2023/11/19 11:13:12;;;;;;;30.20;4.93;;;;;;;10.99;85.29;99645.94;10362484;28;20060;-81
2023/11/19 11:18:15;;;;;;;27.08;6.18;;;;;;;10.48;85.60;99641.78;10357877;28;20057;-80
2023/11/19 11:23:38;;;;;;;31.58;6.88;;;;;;;11.15;83.92;99624.72;10364814;28;20046;-79
2023/11/19 11:28:47;;;;;;;23.30;4.88;;;;;;;10.77;85.04;99636.38;10369508;28;20053;-81
2023/11/19 11:34:10;;;;;;;29.50;4.28;;;;;;;10.34;89.27;99651.97;10377176;28;20049;-81
2023/11/19 11:39:15;;;;;;;35.55;6.38;;;;;;;10.22;95.30;99650.38;10362764;28;20061;-80
2023/11/19 11:44:18;;;;;;;26.48;4.32;;;;;;;9.89;97.85;99636.34;10363047;28;20045;-80
2023/11/19 11:49:29;;;;;;;36.15;5.55;;;;;;;10.11;96.81;99621.00;10400875;28;20056;-81
2023/11/19 11:54:35;;;;;;;34.65;5.22;;;;;;;10.25;95.11;99628.63;10398980;28;20045;-82
2023/11/19 11:59:48;;;;;;;29.48;3.95;;;;;;;11.08;87.49;99623.59;10407893;28;20048;-81
2023/11/19 12:04:52;;;;;;;25.38;3.85;;;;;;;10.09;92.17;99621.16;10423328;28;20053;-79
2023/11/19 12:10:11;;;;;;;24.20;4.20;;;;;;;10.06;96.45;99642.88;10416072;28;20047;-79
2023/11/19 12:15:15;;;;;;;34.83;5.70;;;;;;;9.53;100.00;99635.09;10397856;28;20313;-81
2023/11/19 12:20:19;;;;;;;34.58;4.63;;;;;;;9.51;100.00;99631.69;10425380;28;20106;-83
2023/11/19 12:25:27;;;;;;;31.33;5.78;;;;;;;9.71;100.00;99636.16;10401048;28;20041;-79
2023/11/19 12:30:29;;;;;;;24.88;6.25;;;;;;;9.72;100.00;99634.31;10382638;28;20505;-81
2023/11/19 12:35:34;;;;;;;34.25;5.95;;;;;;;10.02;100.00;99625.38;10419542;28;20056;-81
2023/11/19 12:40:38;;;;;;;23.95;5.53;;;;;;;9.93;100.00;99619.00;10409929;28;20111;-81
2023/11/19 12:45:41;;;;;;;36.17;6.88;;;;;;;10.12;100.00;99601.22;10417722;28;20048;-84
2023/11/19 12:50:53;;;;;;;32.20;4.82;;;;;;;10.33;96.19;99591.19;10400301;28;20148;-84
2023/11/19 12:56:09;;;;;;;24.58;4.20;;;;;;;10.59;93.63;99579.88;10410082;28;20048;-86
2023/11/19 13:01:17;;;;;;;34.42;5.85;;;;;;;10.30;92.28;99598.69;10367594;28;20054;-82
2023/11/19 13:06:21;;;;;;;27.88;4.28;;;;;;;10.43;93.49;99587.69;10382363;28;20572;-80
2023/11/19 13:11:36;;;;;;;23.60;4.63;;;;;;;10.52;90.98;99571.53;10376127;28;20056;-81
2023/11/19 13:16:39;;;;;;;29.17;3.45;;;;;;;10.76;88.95;99565.69;10386154;28;20056;-80
2023/11/19 13:21:45;;;;;;;31.70;4.30;;;;;;;10.89;87.75;99575.25;10396919;28;20183;-82
2023/11/19 13:26:50;;;;;;;36.03;5.72;;;;;;;10.57;87.71;99579.16;10406513;28;20045;-80
2023/11/19 13:31:53;;;;;;;20.52;4.60;;;;;;;10.36;87.85;99584.69;10414278;28;20049;-82
2023/11/19 13:36:56;;;;;;;21.77;4.43;;;;;;;10.91;85.50;99579.50;10411114;28;20049;-80
2023/11/19 13:42:01;;;;;;;35.47;4.57;;;;;;;11.03;84.96;99575.66;10409575;28;20047;-82
2023/11/19 13:47:07;;;;;;;22.42;4.22;;;;;;;11.09;83.03;99550.03;10422618;28;20522;-81
2023/11/19 13:52:10;;;;;;;26.58;4.32;;;;;;;11.33;81.79;99557.59;10409507;28;20064;-82
2023/11/19 13:57:14;;;;;;;32.67;4.38;;;;;;;11.48;80.31;99561.47;10422167;28;20662;-81
2023/11/19 14:02:17;;;;;;;15.73;3.65;;;;;;;11.61;79.54;99550.34;10399189;28;20052;-80
2023/11/19 14:07:20;;;;;;;22.33;3.60;;;;;;;11.02;82.26;99547.06;10390887;28;20064;-81
2023/11/19 14:12:24;;;;;;;25.58;4.40;;;;;;;10.78;83.82;99552.13;10392004;28;20513;-79
2023/11/19 14:17:27;;;;;;;20.02;3.50;;;;;;;10.62;85.27;99544.69;10394623;28;20055;-79
2023/11/19 14:22:30;;;;;;;24.48;3.38;;;;;;;10.69;83.97;99553.81;10391984;28;20053;-79
2023/11/19 14:27:35;;;;;;;22.48;3.78;;;;;;;10.66;85.59;99558.66;10402779;28;20048;-78
2023/11/19 14:32:38;;;;;;;32.65;6.00;;;;;;;10.56;89.75;99553.31;10415157;28;20053;-81
2023/11/19 14:37:42;;;;;;;22.08;3.10;;;;;;;10.47;90.48;99559.53;10420945;28;20057;-82
2023/11/19 14:42:46;;;;;;;26.45;3.95;;;;;;;10.27;89.54;99543.44;10416746;28;21187;-81
2023/11/19 14:47:49;;;;;;;22.35;4.60;;;;;;;10.49;88.24;99552.19;10407874;28;20060;-82
2023/11/19 14:52:52;;;;;;;27.50;4.45;;;;;;;10.77;85.23;99551.25;10414084;28;20113;-79
2023/11/19 14:57:57;;;;;;;15.43;3.00;;;;;;;10.35;84.17;99540.91;10423298;28;20053;-80
2023/11/19 15:03:12;;;;;;;23.52;4.32;;;;;;;10.65;82.87;99563.19;10422848;28;20090;-81
2023/11/19 15:08:15;;;;;;;12.18;3.28;;;;;;;9.89;88.50;99555.88;10422141;28;20504;-82
2023/11/19 15:13:20;;;;;;;14.20;3.25;;;;;;;10.16;88.16;99560.56;10399760;28;20126;-82
2023/11/19 15:18:23;;;;;;;21.45;3.83;;;;;;;10.07;88.49;99558.72;10399978;28;20080;-83
2023/11/19 15:23:26;;;;;;;21.25;3.40;;;;;;;10.14;87.53;99575.09;10413492;28;21133;-83
2023/11/19 15:28:30;;;;;;;18.52;3.75;;;;;;;10.20;86.96;99577.22;10400532;28;20049;-82
2023/11/19 15:33:33;;;;;;;17.30;3.15;;;;;;;10.28;85.43;99571.97;10412978;28;20617;-80
2023/11/19 15:38:36;;;;;;;13.32;2.72;;;;;;;10.54;83.92;99556.13;10411295;28;20048;-82
2023/11/19 15:43:56;;;;;;;14.65;3.20;;;;;;;10.55;84.15;99568.56;10395725;28;20045;-81
2023/11/19 15:48:59;;;;;;;19.05;3.45;;;;;;;10.08;87.24;99579.19;10419958;28;21657;-80
2023/11/19 15:54:02;;;;;;;18.65;4.18;;;;;;;10.37;86.30;99584.56;10390437;28;20057;-83
2023/11/19 15:59:07;;;;;;;20.90;4.15;;;;;;;10.36;86.89;99573.97;10407175;28;20524;-81
2023/11/19 16:04:10;;;;;;;22.25;3.70;;;;;;;10.23;87.80;99576.06;10420237;28;20053;-78
2023/11/19 16:09:14;;;;;;;22.08;4.47;;;;;;;10.53;86.24;99562.50;10425192;28;20063;-80
2023/11/19 16:14:19;;;;;;;18.20;3.30;;;;;;;10.31;89.06;99576.22;10408885;28;20147;-81
2023/11/19 16:19:22;;;;;;;23.20;4.28;;;;;;;9.63;100.00;99601.13;10412671;28;20062;-81
2023/11/19 16:24:26;;;;;;;22.08;4.93;;;;;;;9.11;100.00;99592.34;10415971;28;20048;-81
2023/11/19 16:29:30;;;;;;;16.45;4.78;;;;;;;9.17;100.00;99602.53;10414613;28;20049;-80
2023/11/19 16:34:37;;;;;;;24.30;4.55;;;;;;;9.24;100.00;99594.78;10414936;28;20041;-81
2023/11/19 16:39:42;;;;;;;14.88;4.22;;;;;;;9.00;100.00;99605.84;10448161;28;20049;-80
2023/11/19 16:44:46;;;;;;;17.17;4.35;;;;;;;9.20;100.00;99599.56;10420744;28;20071;-83
2023/11/19 16:49:50;;;;;;;24.85;5.00;;;;;;;9.47;100.00;99614.22;10400590;28;20077;-85
2023/11/19 16:54:55;;;;;;;24.60;5.95;;;;;;;9.34;100.00;99609.06;10390566;28;20053;-83
2023/11/19 16:59:59;;;;;;;15.50;4.47;;;;;;;9.48;100.00;99606.00;10392251;28;20052;-84
2023/11/19 17:05:03;;;;;;;21.27;4.85;;;;;;;9.40;100.00;99599.63;10401492;28;20038;-82
2023/11/19 17:10:08;;;;;;;25.20;6.03;;;;;;;9.37;100.00;99597.22;10417274;28;20052;-83
2023/11/19 17:15:12;;;;;;;22.40;4.90;;;;;;;9.26;100.00;99608.91;10413659;28;20071;-83
2023/11/19 17:20:16;;;;;;;21.25;5.97;;;;;;;9.55;100.00;99595.59;10400717;28;20159;-83
2023/11/19 17:25:19;;;;;;;19.83;4.38;;;;;;;9.56;100.00;99607.19;10412995;28;20060;-81
2023/11/19 17:30:23;;;;;;;13.52;3.30;;;;;;;9.28;100.00;99604.25;10412058;28;20052;-81
2023/11/19 17:35:26;;;;;;;22.77;5.10;;;;;;;9.66;100.00;99600.00;10427724;28;20045;-79
2023/11/19 17:40:29;;;;;;;20.63;3.63;;;;;;;9.54;100.00;99601.94;10421186;28;20059;-80
2023/11/19 17:45:35;;;;;;;19.20;4.38;;;;;;;9.60;100.00;99614.81;10419785;28;20045;-79
2023/11/19 17:50:38;;;;;;;14.38;4.07;;;;;;;9.69;100.00;99613.16;10417939;28;20049;-81
2023/11/19 17:55:41;;;;;;;14.60;2.97;;;;;;;9.58;98.82;99613.25;10419647;28;20183;-79
2023/11/19 18:00:45;;;;;;;6.82;1.83;;;;;;;9.49;97.97;99617.59;10399872;28;20144;-79
2023/11/19 18:05:48;;;;;;;27.95;4.43;;;;;;;9.80;97.58;99606.81;10412773;28;20417;-79
2023/11/19 18:10:52;;;;;;;19.23;3.30;;;;;;;9.64;98.42;99612.69;10400382;28;21034;-79
2023/11/19 18:15:56;;;;;;;15.07;4.93;;;;;;;9.62;100.00;99612.81;10386176;28;20052;-80
2023/11/19 18:20:59;;;;;;;9.38;2.85;;;;;;;9.40;100.00;99631.81;10395386;28;20060;-81
2023/11/19 18:26:02;;;;;;;19.63;5.55;;;;;;;9.65;100.00;99623.31;10395510;28;20044;-80
2023/11/19 18:31:07;;;;;;;20.50;5.22;;;;;;;9.55;100.00;99621.56;10417638;28;20064;-81
2023/11/19 18:36:11;;;;;;;20.55;5.57;;;;;;;9.58;100.00;99613.25;10418636;28;20068;-80
2023/11/19 18:41:14;;;;;;;22.42;5.90;;;;;;;9.56;100.00;99616.06;10426189;28;20059;-79
2023/11/19 18:46:18;;;;;;;19.05;5.53;;;;;;;9.51;100.00;99610.25;10433675;28;20150;-81
2023/11/19 18:51:21;;;;;;;21.75;6.22;;;;;;;9.31;100.00;99609.34;10429285;28;20044;-81
2023/11/19 18:56:24;;;;;;;17.15;5.43;;;;;;;9.24;100.00;99600.13;10421319;28;20079;-82
2023/11/19 19:01:31;;;;;;;18.15;5.15;;;;;;;9.08;100.00;99608.69;10412203;28;20051;-81
2023/11/19 19:06:35;;;;;;;20.20;6.32;;;;;;;8.82;100.00;99611.78;10410067;28;20036;-81
2023/11/19 19:11:38;;;;;;;15.68;6.50;;;;;;;9.00;100.00;99600.47;10406006;28;20068;-81
2023/11/19 19:16:42;;;;;;;19.98;6.47;;;;;;;9.04;100.00;99600.06;10398089;28;20060;-85
2023/11/19 19:21:46;;;;;;;19.15;5.43;;;;;;;8.89;100.00;99597.88;10390731;28;20056;-82
2023/11/19 19:26:48;;;;;;;21.63;7.18;;;;;;;8.90;100.00;99594.22;10419991;28;20052;-80
2023/11/19 19:31:53;;;;;;;22.63;6.25;;;;;;;8.78;100.00;99590.78;10408115;28;20080;-81
2023/11/19 19:36:57;;;;;;;17.38;5.18;;;;;;;8.80;100.00;99586.97;10430232;28;20377;-83
2023/11/19 19:42:01;;;;;;;24.17;6.35;;;;;;;8.68;100.00;99581.81;10421752;28;20054;-83
2023/11/19 19:47:05;;;;;;;16.65;7.88;;;;;;;9.04;100.00;99583.13;10417051;28;20049;-81
2023/11/19 19:52:08;;;;;;;21.08;7.20;;;;;;;8.78;100.00;99583.59;10399117;28;20075;-81
2023/11/19 19:57:11;;;;;;;19.95;7.70;;;;;;;8.82;100.00;99576.13;10419383;28;20059;-79
2023/11/19 20:02:15;;;;;;;17.60;9.27;;;;;;;9.01;100.00;99570.00;10415389;28;20048;-79
2023/11/19 20:07:18;;;;;;;13.20;7.03;;;;;;;8.81;100.00;99569.91;10411927;28;20871;-80
2023/11/19 20:12:21;;;;;;;24.85;8.05;;;;;;;8.90;100.00;99554.88;10412309;28;20415;-80
2023/11/19 20:17:25;;;;;;;14.18;6.40;;;;;;;8.77;100.00;99544.38;10412023;28;20126;-80
2023/11/19 20:22:28;;;;;;;16.92;6.75;;;;;;;8.84;100.00;99555.41;10410953;28;20114;-81
2023/11/19 20:27:31;;;;;;;17.33;7.40;;;;;;;8.78;100.00;99545.25;10412072;28;20056;-80
2023/11/19 20:32:37;;;;;;;13.02;4.47;;;;;;;8.54;100.00;99545.53;10409839;28;20500;-81
2023/11/19 20:37:41;;;;;;;13.48;5.43;;;;;;;8.50;100.00;99552.97;10405034;28;20045;-79
2023/11/19 20:42:43;;;;;;;15.73;6.18;;;;;;;8.92;100.00;99555.59;10414571;28;20057;-80
2023/11/19 20:47:49;;;;;;;11.18;5.22;;;;;;;8.49;100.00;99569.16;10414481;28;20044;-80
2023/11/19 20:52:53;;;;;;;17.00;6.43;;;;;;;8.73;100.00;99556.34;10408742;28;20045;-81
2023/11/19 20:57:56;;;;;;;18.27;6.95;;;;;;;8.67;100.00;99551.53;10414231;28;20044;-80
2023/11/19 21:03:01;;;;;;;19.35;6.03;;;;;;;8.54;100.00;99540.19;10409137;28;20064;-79
2023/11/19 21:08:05;;;;;;;13.55;4.72;;;;;;;8.52;100.00;99548.31;10401830;28;20059;-80
2023/11/19 21:13:08;;;;;;;13.93;4.80;;;;;;;8.55;100.00;99528.47;10412768;28;20484;-81
2023/11/19 21:18:13;;;;;;;9.52;5.30;;;;;;;8.68;100.00;99528.28;10415848;28;20053;-82
2023/11/19 21:23:16;;;;;;;10.85;4.45;;;;;;;8.71;100.00;99518.13;10410145;28;20049;-80
2023/11/19 21:28:19;;;;;;;15.90;4.53;;;;;;;8.64;100.00;99530.38;10400938;28;20103;-83
2023/11/19 21:33:24;;;;;;;10.85;4.00;;;;;;;8.55;100.00;99523.13;10381402;28;20709;-82
2023/11/19 21:38:27;;;;;;;13.40;4.38;;;;;;;8.72;100.00;99518.97;10394613;28;20045;-82
2023/11/19 21:43:30;;;;;;;8.52;3.70;;;;;;;8.51;100.00;99501.13;10414158;28;20401;-81
2023/11/19 21:48:34;;;;;;;7.45;4.15;;;;;;;8.65;100.00;99504.44;10416274;28;20056;-83
2023/11/19 21:53:39;;;;;;;7.95;3.88;;;;;;;8.65;100.00;99493.75;10395917;28;20060;-84
2023/11/19 21:58:43;;;;;;;6.72;2.97;;;;;;;8.47;100.00;99496.19;10395796;28;21675;-83
2023/11/19 22:03:47;;;;;;;8.38;3.60;;;;;;;8.64;100.00;99481.31;10407178;28;20508;-85
2023/11/19 22:08:50;;;;;;;4.90;2.53;;;;;;;8.56;100.00;99485.53;10422696;28;20045;-83
2023/11/19 22:13:54;;;;;;;5.90;2.78;;;;;;;8.58;100.00;99496.97;10408644;28;20046;-84
2023/11/19 22:18:58;;;;;;;5.03;2.50;;;;;;;8.67;100.00;99491.78;10406294;28;20172;-85
2023/11/19 22:24:02;;;;;;;5.45;2.80;;;;;;;8.63;100.00;99480.47;10429496;28;20051;-84
2023/11/19 22:29:05;;;;;;;3.90;1.65;;;;;;;8.69;100.00;99487.13;10411566;28;20122;-85
2023/11/19 22:34:11;;;;;;;2.83;2.40;;;;;;;8.70;100.00;99470.94;10415504;28;20045;-82
2023/11/19 22:39:14;;;;;;;2.38;2.15;;;;;;;8.67;100.00;99481.91;10408494;28;20049;-83
2023/11/19 22:44:17;;;;;;;2.25;1.95;;;;;;;8.50;100.00;99469.13;10381314;28;20064;-84
2023/11/19 22:49:21;;;;;;;4.68;2.05;;;;;;;8.38;100.00;99476.38;10382914;28;20123;-81
2023/11/19 22:54:24;;;;;;;3.10;2.80;;;;;;;8.55;100.00;99453.53;10383726;28;20056;-81
2023/11/19 22:59:27;;;;;;;8.57;3.33;;;;;;;8.47;100.00;99461.38;10383078;28;20061;-82
2023/11/19 23:04:32;;;;;;;3.75;1.98;;;;;;;8.20;100.00;99472.59;10378844;28;20152;-83
2023/11/19 23:09:35;;;;;;;2.55;2.05;;;;;;;8.36;100.00;99479.22;10369707;28;20057;-84
2023/11/19 23:14:38;;;;;;;3.97;3.20;;;;;;;8.49;100.00;99472.81;10384752;28;20048;-82
2023/11/19 23:19:42;;;;;;;4.70;4.22;;;;;;;8.55;100.00;99481.13;10380414;28;20050;-83
2023/11/19 23:24:45;;;;;;;11.57;6.10;;;;;;;8.45;100.00;99472.22;10395028;28;20045;-83